History for Boise, ID


Lat: N 43 ° 36 ' 50 '' ( 43.614 ° )
Lon: W 116 ° 12 ' 14 '' ( -116.204 ° )

Elevation: 2847 ft
Data type:
Distance calculator

 
 

Select another date:

« Previous Day   |   Next Day »

Daily Statistics
  Current High Low Average
Temperature - 71.0 °F 50.0 °F 60.5 °F
Dew Point - 50.0 °F 45.0 °F 46.9 °F
Humidity % 84% 47% 70%
Wind Speed - 4.0mph - 2.2mph
Wind Gust - 8.0mph - -
Wind - - East
Pressure - 26.95in - -
Precipitation 0.00in      

Tabular Data for May 25, 2015
Time Temperature Dew Point Pressure Wind Wind Speed Wind Gust Humidity Hourly Precipitation
00:01 59.0 °F 46.0 °F 26.92in East 0.0mph 4.0mph 61% -99.99in
00:32 59.0 °F 46.0 °F 26.92in East 0.0mph 4.0mph 61% -99.99in
00:42 59.0 °F 46.0 °F 26.92in East 0.0mph 4.0mph 61% -99.99in
00:51 59.0 °F 46.0 °F 26.92in East 0.0mph 4.0mph 61% -99.99in
01:01 54.0 °F 46.0 °F 26.92in East 4.0mph 7.0mph 75% -99.99in
01:21 54.0 °F 46.0 °F 26.92in East 4.0mph 7.0mph 75% -99.99in
01:31 54.0 °F 46.0 °F 26.92in East 4.0mph 7.0mph 75% -99.99in
01:43 54.0 °F 46.0 °F 26.92in East 4.0mph 7.0mph 75% -99.99in
01:51 54.0 °F 46.0 °F 26.92in East 4.0mph 7.0mph 75% -99.99in
02:00 52.0 °F 46.0 °F 26.91in East 3.0mph 6.0mph 80% -99.99in
02:21 52.0 °F 46.0 °F 26.91in East 3.0mph 6.0mph 80% -99.99in
02:31 52.0 °F 46.0 °F 26.91in East 3.0mph 6.0mph 80% -99.99in
02:42 52.0 °F 46.0 °F 26.91in East 3.0mph 6.0mph 80% -99.99in
02:51 52.0 °F 46.0 °F 26.91in East 3.0mph 6.0mph 80% -99.99in
04:00 52.0 °F 46.0 °F 26.91in East 2.0mph 5.0mph 81% -99.99in
04:22 52.0 °F 46.0 °F 26.91in East 2.0mph 5.0mph 81% -99.99in
04:31 52.0 °F 46.0 °F 26.91in East 2.0mph 5.0mph 81% -99.99in
04:42 52.0 °F 46.0 °F 26.91in East 2.0mph 5.0mph 81% -99.99in
04:52 52.0 °F 46.0 °F 26.91in East 2.0mph 5.0mph 81% -99.99in
05:01 50.0 °F 45.0 °F 26.91in East 3.0mph 5.0mph 84% -99.99in
05:22 50.0 °F 45.0 °F 26.91in East 3.0mph 5.0mph 84% -99.99in
05:32 50.0 °F 45.0 °F 26.91in East 3.0mph 5.0mph 84% -99.99in
05:42 50.0 °F 45.0 °F 26.91in East 3.0mph 5.0mph 84% -99.99in
05:52 50.0 °F 45.0 °F 26.91in East 3.0mph 5.0mph 84% -99.99in
06:00 50.0 °F 45.0 °F 26.91in East 3.0mph 7.0mph 82% -99.99in
06:22 50.0 °F 45.0 °F 26.91in East 3.0mph 7.0mph 82% -99.99in
06:32 50.0 °F 45.0 °F 26.91in East 3.0mph 7.0mph 82% -99.99in
06:42 50.0 °F 45.0 °F 26.91in East 3.0mph 7.0mph 82% -99.99in
06:51 50.0 °F 45.0 °F 26.91in East 3.0mph 7.0mph 82% -99.99in
07:01 53.0 °F 47.0 °F 26.93in East 2.0mph 4.0mph 79% -99.99in
07:21 53.0 °F 47.0 °F 26.93in East 2.0mph 4.0mph 79% -99.99in
07:31 53.0 °F 47.0 °F 26.93in East 2.0mph 4.0mph 79% -99.99in
07:42 53.0 °F 47.0 °F 26.93in East 2.0mph 4.0mph 79% -99.99in
07:52 53.0 °F 47.0 °F 26.93in East 2.0mph 4.0mph 79% -99.99in
08:01 57.0 °F 48.0 °F 26.94in East 0.0mph 2.0mph 72% -99.99in
08:22 57.0 °F 48.0 °F 26.94in East 0.0mph 2.0mph 72% -99.99in
08:32 57.0 °F 48.0 °F 26.94in East 0.0mph 2.0mph 72% -99.99in
08:42 57.0 °F 48.0 °F 26.94in East 0.0mph 2.0mph 72% -99.99in
08:51 57.0 °F 48.0 °F 26.94in East 0.0mph 2.0mph 72% -99.99in
09:01 63.0 °F 49.0 °F 26.95in East 1.0mph 5.0mph 60% -99.99in
09:21 63.0 °F 49.0 °F 26.95in East 1.0mph 5.0mph 60% -99.99in
09:32 63.0 °F 49.0 °F 26.95in East 1.0mph 5.0mph 60% -99.99in
09:42 63.0 °F 49.0 °F 26.95in East 1.0mph 5.0mph 60% -99.99in
10:01 67.0 °F 48.0 °F 26.94in East 2.0mph 8.0mph 50% -99.99in
10:21 67.0 °F 48.0 °F 26.94in East 2.0mph 8.0mph 50% -99.99in
10:32 67.0 °F 48.0 °F 26.94in East 2.0mph 8.0mph 50% -99.99in
10:42 67.0 °F 48.0 °F 26.94in East 2.0mph 8.0mph 50% -99.99in
10:52 67.0 °F 48.0 °F 26.94in East 2.0mph 8.0mph 50% -99.99in
12:00 71.0 °F 50.0 °F 26.92in East 3.0mph 6.0mph 47% -99.99in
12:22 71.0 °F 50.0 °F 26.92in East 3.0mph 6.0mph 47% -99.99in
12:32 71.0 °F 50.0 °F 26.92in East 3.0mph 6.0mph 47% -99.99in
12:42 71.0 °F 50.0 °F 26.92in East 3.0mph 6.0mph 47% -99.99in
12:52 71.0 °F 50.0 °F 26.92in East 3.0mph 6.0mph 47% -99.99in

Powered by the Weather Underground, Inc.